TJSJ/SJU METAR and TAF weather

Enter ICAO airport designator
Station Type Date Time Source
TJSJ METAR 2024/04/17 18:56 UTC NOAA

TJSJ 171856Z 05011G18KT 10SM SCT022 SCT055 29/23 A2991 RMK AO2 SLP128 SHRA DSNT S W T02890233


Station Type Date Time Source
TJSJ Decoded METAR 2024/04/17 18:56 UTC NOAA

San Juan, Luis Munoz Marin International Airport, PR, United States (TJSJ) 18-27N 066-00W
Apr 17, 2024 - 02:56 PM EDT / 2024.04.17 1856 UTC
Wind: from the NE (050 degrees) at 13 MPH (11 KT) gusting to 21 MPH (18 KT):0
Visibility: 10 mile(s):0
Sky conditions: partly cloudy
Temperature: 84.0 F (28.9 C)
Dew Point: 73.9 F (23.3 C)
Relative Humidity: 71%
Pressure (altimeter): 29.91 in. Hg (1012 hPa)
ob: TJSJ 171856Z 05011G18KT 10SM SCT022 SCT055 29/23 A2991 RMK AO2 SLP128 SHRA DSNT S W T02890233
cycle: 19

Station Type Date Time Source
TJSJ TAF 2024/04/17 18:22 UTC NOAA